sensor_id;sensor_type;location;lat;lon;timestamp;temperature;humidity
67759;SHT31;54562;47.620;18.786;2023-03-03T00:00:30;3.94;74.01
67759;SHT31;54562;47.620;18.786;2023-03-03T00:03:39;3.92;74.04
67759;SHT31;54562;47.620;18.786;2023-03-03T00:06:47;3.91;74.07
67759;SHT31;54562;47.620;18.786;2023-03-03T00:09:55;3.84;73.43
67759;SHT31;54562;47.620;18.786;2023-03-03T00:13:02;3.74;73.20
67759;SHT31;54562;47.620;18.786;2023-03-03T00:16:20;3.65;73.50
67759;SHT31;54562;47.620;18.786;2023-03-03T00:19:32;3.61;73.79
67759;SHT31;54562;47.620;18.786;2023-03-03T00:22:46;3.60;73.98
67759;SHT31;54562;47.620;18.786;2023-03-03T00:25:54;3.59;74.07
67759;SHT31;54562;47.620;18.786;2023-03-03T00:29:03;3.60;74.42
67759;SHT31;54562;47.620;18.786;2023-03-03T00:32:37;3.60;74.78
67759;SHT31;54562;47.620;18.786;2023-03-03T00:35:52;3.59;74.71
67759;SHT31;54562;47.620;18.786;2023-03-03T00:39:20;3.58;74.82
67759;SHT31;54562;47.620;18.786;2023-03-03T00:42:35;3.56;74.49
67759;SHT31;54562;47.620;18.786;2023-03-03T00:45:44;3.45;73.43
67759;SHT31;54562;47.620;18.786;2023-03-03T00:48:54;3.37;73.52
67759;SHT31;54562;47.620;18.786;2023-03-03T00:52:02;3.30;73.80
67759;SHT31;54562;47.620;18.786;2023-03-03T00:55:17;3.25;74.20
67759;SHT31;54562;47.620;18.786;2023-03-03T00:58:25;3.22;74.46
67759;SHT31;54562;47.620;18.786;2023-03-03T01:01:33;3.20;74.68
67759;SHT31;54562;47.620;18.786;2023-03-03T01:04:41;3.20;75.15
67759;SHT31;54562;47.620;18.786;2023-03-03T01:07:54;3.21;75.38
67759;SHT31;54562;47.620;18.786;2023-03-03T01:11:04;3.22;75.45
67759;SHT31;54562;47.620;18.786;2023-03-03T01:14:18;3.17;74.58
67759;SHT31;54562;47.620;18.786;2023-03-03T01:17:26;3.10;74.72
67759;SHT31;54562;47.620;18.786;2023-03-03T01:20:36;3.05;74.89
67759;SHT31;54562;47.620;18.786;2023-03-03T01:23:45;3.03;75.26
67759;SHT31;54562;47.620;18.786;2023-03-03T01:26:52;3.05;75.53
67759;SHT31;54562;47.620;18.786;2023-03-03T01:30:01;3.03;75.27
67759;SHT31;54562;47.620;18.786;2023-03-03T01:33:11;2.96;75.04
67759;SHT31;54562;47.620;18.786;2023-03-03T01:36:22;2.90;74.88
67759;SHT31;54562;47.620;18.786;2023-03-03T01:39:31;2.87;75.35
67759;SHT31;54562;47.620;18.786;2023-03-03T01:42:39;2.86;75.39
67759;SHT31;54562;47.620;18.786;2023-03-03T01:49:48;2.86;75.93
67759;SHT31;54562;47.620;18.786;2023-03-03T01:53:03;2.87;76.08
67759;SHT31;54562;47.620;18.786;2023-03-03T01:56:18;2.88;76.18
67759;SHT31;54562;47.620;18.786;2023-03-03T01:59:28;2.89;76.14
67759;SHT31;54562;47.620;18.786;2023-03-03T02:02:40;2.88;76.19
67759;SHT31;54562;47.620;18.786;2023-03-03T02:05:50;2.86;76.34
67759;SHT31;54562;47.620;18.786;2023-03-03T02:09:03;2.87;76.36
67759;SHT31;54562;47.620;18.786;2023-03-03T02:12:21;2.88;76.56
67759;SHT31;54562;47.620;18.786;2023-03-03T02:15:35;2.90;76.68
67759;SHT31;54562;47.620;18.786;2023-03-03T02:18:43;2.93;76.81
67759;SHT31;54562;47.620;18.786;2023-03-03T02:21:52;2.98;77.04
67759;SHT31;54562;47.620;18.786;2023-03-03T02:25:01;3.03;77.28
67759;SHT31;54562;47.620;18.786;2023-03-03T02:28:17;3.05;77.18
67759;SHT31;54562;47.620;18.786;2023-03-03T02:31:26;3.02;76.73
67759;SHT31;54562;47.620;18.786;2023-03-03T02:34:44;2.99;76.78
67759;SHT31;54562;47.620;18.786;2023-03-03T02:37:55;2.99;76.88
67759;SHT31;54562;47.620;18.786;2023-03-03T02:41:17;2.99;76.82
67759;SHT31;54562;47.620;18.786;2023-03-03T02:44:35;2.93;76.75
67759;SHT31;54562;47.620;18.786;2023-03-03T02:47:49;2.91;76.93
67759;SHT31;54562;47.620;18.786;2023-03-03T02:50:57;2.89;77.07
67759;SHT31;54562;47.620;18.786;2023-03-03T02:54:06;2.90;77.13
67759;SHT31;54562;47.620;18.786;2023-03-03T02:57:16;2.91;77.23
67759;SHT31;54562;47.620;18.786;2023-03-03T03:00:25;2.93;77.28
67759;SHT31;54562;47.620;18.786;2023-03-03T03:03:34;2.95;77.37
67759;SHT31;54562;47.620;18.786;2023-03-03T03:06:42;2.93;76.88
67759;SHT31;54562;47.620;18.786;2023-03-03T03:09:51;2.85;76.42
67759;SHT31;54562;47.620;18.786;2023-03-03T03:12:59;2.80;76.46
67759;SHT31;54562;47.620;18.786;2023-03-03T03:16:07;2.76;76.71
67759;SHT31;54562;47.620;18.786;2023-03-03T03:19:15;2.75;77.02
67759;SHT31;54562;47.620;18.786;2023-03-03T03:22:23;2.75;77.30
67759;SHT31;54562;47.620;18.786;2023-03-03T03:25:31;2.76;77.47
67759;SHT31;54562;47.620;18.786;2023-03-03T03:28:47;2.73;77.27
67759;SHT31;54562;47.620;18.786;2023-03-03T03:31:55;2.72;77.51
67759;SHT31;54562;47.620;18.786;2023-03-03T03:35:03;2.73;77.68
67759;SHT31;54562;47.620;18.786;2023-03-03T03:38:13;2.73;77.54
67759;SHT31;54562;47.620;18.786;2023-03-03T03:41:22;2.72;77.53
67759;SHT31;54562;47.620;18.786;2023-03-03T03:44:30;2.72;77.78
67759;SHT31;54562;47.620;18.786;2023-03-03T03:47:37;2.74;77.87
67759;SHT31;54562;47.620;18.786;2023-03-03T03:50:47;2.73;77.90
67759;SHT31;54562;47.620;18.786;2023-03-03T03:53:55;2.72;77.80
67759;SHT31;54562;47.620;18.786;2023-03-03T03:57:03;2.74;78.03
67759;SHT31;54562;47.620;18.786;2023-03-03T04:00:12;2.76;78.18
67759;SHT31;54562;47.620;18.786;2023-03-03T04:03:21;2.76;78.13
67759;SHT31;54562;47.620;18.786;2023-03-03T04:06:30;2.72;77.83
67759;SHT31;54562;47.620;18.786;2023-03-03T04:09:38;2.67;77.59
67759;SHT31;54562;47.620;18.786;2023-03-03T04:12:46;2.63;77.88
67759;SHT31;54562;47.620;18.786;2023-03-03T04:15:54;2.60;77.93
67759;SHT31;54562;47.620;18.786;2023-03-03T04:19:02;2.58;77.98
67759;SHT31;54562;47.620;18.786;2023-03-03T04:22:09;2.56;78.14
67759;SHT31;54562;47.620;18.786;2023-03-03T04:25:17;2.57;78.27
67759;SHT31;54562;47.620;18.786;2023-03-03T04:28:26;2.58;78.56
67759;SHT31;54562;47.620;18.786;2023-03-03T04:31:34;2.60;78.77
67759;SHT31;54562;47.620;18.786;2023-03-03T04:34:41;2.60;78.54
67759;SHT31;54562;47.620;18.786;2023-03-03T04:38:00;2.59;78.32
67759;SHT31;54562;47.620;18.786;2023-03-03T04:41:08;2.60;78.44
67759;SHT31;54562;47.620;18.786;2023-03-03T04:44:16;2.62;78.66
67759;SHT31;54562;47.620;18.786;2023-03-03T04:47:24;2.64;78.70
67759;SHT31;54562;47.620;18.786;2023-03-03T04:50:32;2.65;78.78
67759;SHT31;54562;47.620;18.786;2023-03-03T04:53:40;2.67;78.94
67759;SHT31;54562;47.620;18.786;2023-03-03T04:56:48;2.70;78.98
67759;SHT31;54562;47.620;18.786;2023-03-03T04:59:56;2.72;78.99
67759;SHT31;54562;47.620;18.786;2023-03-03T05:03:04;2.74;79.08
67759;SHT31;54562;47.620;18.786;2023-03-03T05:06:15;2.76;79.20
67759;SHT31;54562;47.620;18.786;2023-03-03T05:09:23;2.75;79.22
67759;SHT31;54562;47.620;18.786;2023-03-03T05:12:31;2.74;79.22
67759;SHT31;54562;47.620;18.786;2023-03-03T05:15:39;2.74;79.36
67759;SHT31;54562;47.620;18.786;2023-03-03T05:18:47;2.75;79.52
67759;SHT31;54562;47.620;18.786;2023-03-03T05:21:56;2.78;79.75
67759;SHT31;54562;47.620;18.786;2023-03-03T05:25:04;2.79;79.70
67759;SHT31;54562;47.620;18.786;2023-03-03T05:28:15;2.82;79.72
67759;SHT31;54562;47.620;18.786;2023-03-03T05:31:23;2.82;79.88
67759;SHT31;54562;47.620;18.786;2023-03-03T05:34:31;2.84;79.82
67759;SHT31;54562;47.620;18.786;2023-03-03T05:37:39;2.87;79.91
67759;SHT31;54562;47.620;18.786;2023-03-03T05:40:49;2.91;79.97
67759;SHT31;54562;47.620;18.786;2023-03-03T05:43:58;2.94;80.05
67759;SHT31;54562;47.620;18.786;2023-03-03T05:47:06;2.97;80.09
67759;SHT31;54562;47.620;18.786;2023-03-03T05:50:13;3.01;80.10
67759;SHT31;54562;47.620;18.786;2023-03-03T05:53:22;3.05;80.02
67759;SHT31;54562;47.620;18.786;2023-03-03T05:56:31;3.09;79.90
67759;SHT31;54562;47.620;18.786;2023-03-03T05:59:39;3.10;79.78
67759;SHT31;54562;47.620;18.786;2023-03-03T06:02:47;3.14;80.01
67759;SHT31;54562;47.620;18.786;2023-03-03T06:05:55;3.18;80.00
67759;SHT31;54562;47.620;18.786;2023-03-03T06:09:04;3.23;79.86
67759;SHT31;54562;47.620;18.786;2023-03-03T06:12:11;3.28;79.82
67759;SHT31;54562;47.620;18.786;2023-03-03T06:15:20;3.32;79.84
67759;SHT31;54562;47.620;18.786;2023-03-03T06:18:28;3.39;80.11
67759;SHT31;54562;47.620;18.786;2023-03-03T06:21:37;3.51;80.22
67759;SHT31;54562;47.620;18.786;2023-03-03T06:24:45;3.63;80.25
67759;SHT31;54562;47.620;18.786;2023-03-03T06:27:54;3.73;80.29
67759;SHT31;54562;47.620;18.786;2023-03-03T06:31:02;3.81;80.08
67759;SHT31;54562;47.620;18.786;2023-03-03T06:34:10;3.92;80.24
67759;SHT31;54562;47.620;18.786;2023-03-03T06:37:19;4.05;80.69
67759;SHT31;54562;47.620;18.786;2023-03-03T06:40:27;4.16;80.72
67759;SHT31;54562;47.620;18.786;2023-03-03T06:43:35;4.21;80.07
67759;SHT31;54562;47.620;18.786;2023-03-03T06:46:43;4.24;79.82
67759;SHT31;54562;47.620;18.786;2023-03-03T06:49:51;4.27;79.96
67759;SHT31;54562;47.620;18.786;2023-03-03T06:53:00;4.33;79.95
67759;SHT31;54562;47.620;18.786;2023-03-03T06:56:16;4.40;80.00
67759;SHT31;54562;47.620;18.786;2023-03-03T06:59:27;4.46;80.07
67759;SHT31;54562;47.620;18.786;2023-03-03T07:02:35;4.55;80.26
67759;SHT31;54562;47.620;18.786;2023-03-03T07:05:43;4.65;80.38
67759;SHT31;54562;47.620;18.786;2023-03-03T07:08:52;4.76;80.56
67759;SHT31;54562;47.620;18.786;2023-03-03T07:12:05;4.88;80.84
67759;SHT31;54562;47.620;18.786;2023-03-03T07:15:20;5.01;80.97
67759;SHT31;54562;47.620;18.786;2023-03-03T07:18:36;5.13;81.01
67759;SHT31;54562;47.620;18.786;2023-03-03T07:21:54;5.26;81.01
67759;SHT31;54562;47.620;18.786;2023-03-03T07:25:09;5.38;81.10
67759;SHT31;54562;47.620;18.786;2023-03-03T07:28:25;5.49;81.26
67759;SHT31;54562;47.620;18.786;2023-03-03T07:31:36;5.60;81.29
67759;SHT31;54562;47.620;18.786;2023-03-03T07:34:49;5.70;81.26
67759;SHT31;54562;47.620;18.786;2023-03-03T07:38:00;5.77;81.18
67759;SHT31;54562;47.620;18.786;2023-03-03T07:41:20;5.85;81.27
67759;SHT31;54562;47.620;18.786;2023-03-03T07:44:29;5.92;81.28
67759;SHT31;54562;47.620;18.786;2023-03-03T07:47:42;6.00;80.95
67759;SHT31;54562;47.620;18.786;2023-03-03T07:50:50;6.07;80.61
67759;SHT31;54562;47.620;18.786;2023-03-03T07:54:09;6.14;80.18
67759;SHT31;54562;47.620;18.786;2023-03-03T07:57:34;6.21;80.07
67759;SHT31;54562;47.620;18.786;2023-03-03T08:04:47;6.40;80.09
67759;SHT31;54562;47.620;18.786;2023-03-03T08:08:00;6.49;79.82
67759;SHT31;54562;47.620;18.786;2023-03-03T08:11:25;6.59;79.29
67759;SHT31;54562;47.620;18.786;2023-03-03T08:14:34;6.68;79.18
67759;SHT31;54562;47.620;18.786;2023-03-03T08:17:43;6.79;79.07
67759;SHT31;54562;47.620;18.786;2023-03-03T08:20:54;6.93;78.99
67759;SHT31;54562;47.620;18.786;2023-03-03T08:24:05;7.07;78.68
67759;SHT31;54562;47.620;18.786;2023-03-03T08:27:13;7.19;78.18
67759;SHT31;54562;47.620;18.786;2023-03-03T08:30:21;7.23;78.06
67759;SHT31;54562;47.620;18.786;2023-03-03T08:33:29;7.30;77.85
67759;SHT31;54562;47.620;18.786;2023-03-03T08:36:38;7.32;77.64
67759;SHT31;54562;47.620;18.786;2023-03-03T08:39:46;7.35;77.60
67759;SHT31;54562;47.620;18.786;2023-03-03T08:42:55;7.42;77.35
67759;SHT31;54562;47.620;18.786;2023-03-03T08:46:04;7.44;77.03
67759;SHT31;54562;47.620;18.786;2023-03-03T08:49:14;7.45;76.65
67759;SHT31;54562;47.620;18.786;2023-03-03T08:52:22;7.44;76.63
67759;SHT31;54562;47.620;18.786;2023-03-03T08:55:30;7.47;76.58
67759;SHT31;54562;47.620;18.786;2023-03-03T08:58:38;7.53;76.47
67759;SHT31;54562;47.620;18.786;2023-03-03T09:02:05;7.63;76.18
67759;SHT31;54562;47.620;18.786;2023-03-03T09:05:13;7.80;76.17
67759;SHT31;54562;47.620;18.786;2023-03-03T09:08:22;8.01;75.95
67759;SHT31;54562;47.620;18.786;2023-03-03T09:11:30;8.11;75.27
67759;SHT31;54562;47.620;18.786;2023-03-03T09:14:38;8.13;75.11
67759;SHT31;54562;47.620;18.786;2023-03-03T09:17:46;8.28;75.02
67759;SHT31;54562;47.620;18.786;2023-03-03T09:20:55;8.46;74.74
67759;SHT31;54562;47.620;18.786;2023-03-03T09:24:04;8.67;74.35
67759;SHT31;54562;47.620;18.786;2023-03-03T09:27:21;8.90;74.00
67759;SHT31;54562;47.620;18.786;2023-03-03T09:30:38;9.13;73.30
67759;SHT31;54562;47.620;18.786;2023-03-03T09:33:52;9.35;72.82
67759;SHT31;54562;47.620;18.786;2023-03-03T09:37:02;9.56;72.25
67759;SHT31;54562;47.620;18.786;2023-03-03T09:40:34;9.72;71.38
67759;SHT31;54562;47.620;18.786;2023-03-03T09:44:14;9.89;70.98
67759;SHT31;54562;47.620;18.786;2023-03-03T09:48:10;10.06;70.45
67759;SHT31;54562;47.620;18.786;2023-03-03T09:51:49;10.25;70.19
67759;SHT31;54562;47.620;18.786;2023-03-03T09:55:19;10.45;69.40
67759;SHT31;54562;47.620;18.786;2023-03-03T09:58:54;10.61;69.41
67759;SHT31;54562;47.620;18.786;2023-03-03T10:02:22;10.82;69.04
67759;SHT31;54562;47.620;18.786;2023-03-03T10:05:42;11.04;68.36
67759;SHT31;54562;47.620;18.786;2023-03-03T10:09:06;11.18;67.65
67759;SHT31;54562;47.620;18.786;2023-03-03T10:12:41;11.37;67.44
67759;SHT31;54562;47.620;18.786;2023-03-03T10:16:08;11.52;67.05
67759;SHT31;54562;47.620;18.786;2023-03-03T10:19:38;11.70;66.63
67759;SHT31;54562;47.620;18.786;2023-03-03T10:22:55;11.84;65.96
67759;SHT31;54562;47.620;18.786;2023-03-03T10:26:18;11.95;65.68
67759;SHT31;54562;47.620;18.786;2023-03-03T10:29:49;12.09;65.20
67759;SHT31;54562;47.620;18.786;2023-03-03T10:33:11;12.25;64.88
67759;SHT31;54562;47.620;18.786;2023-03-03T10:36:35;12.34;64.28
67759;SHT31;54562;47.620;18.786;2023-03-03T10:40:07;12.53;64.08
67759;SHT31;54562;47.620;18.786;2023-03-03T10:43:31;12.80;63.67
67759;SHT31;54562;47.620;18.786;2023-03-03T10:47:06;13.05;62.71
67759;SHT31;54562;47.620;18.786;2023-03-03T10:50:35;13.27;62.07
67759;SHT31;54562;47.620;18.786;2023-03-03T10:54:01;13.50;61.41
67759;SHT31;54562;47.620;18.786;2023-03-03T10:57:25;13.52;61.03
67759;SHT31;54562;47.620;18.786;2023-03-03T11:00:45;13.49;61.09
67759;SHT31;54562;47.620;18.786;2023-03-03T11:04:15;13.26;60.63
67759;SHT31;54562;47.620;18.786;2023-03-03T11:07:45;12.99;60.42
67759;SHT31;54562;47.620;18.786;2023-03-03T11:11:04;12.79;60.68
67759;SHT31;54562;47.620;18.786;2023-03-03T11:14:22;12.59;60.71
67759;SHT31;54562;47.620;18.786;2023-03-03T11:17:46;12.54;60.45
67759;SHT31;54562;47.620;18.786;2023-03-03T11:21:14;12.50;60.23
67759;SHT31;54562;47.620;18.786;2023-03-03T11:24:42;12.55;60.13
67759;SHT31;54562;47.620;18.786;2023-03-03T11:28:08;12.66;60.04
67759;SHT31;54562;47.620;18.786;2023-03-03T11:31:31;12.74;60.28
67759;SHT31;54562;47.620;18.786;2023-03-03T11:34:55;12.50;60.61
67759;SHT31;54562;47.620;18.786;2023-03-03T11:42:06;11.91;60.99
67759;SHT31;54562;47.620;18.786;2023-03-03T11:45:27;12.05;61.34
67759;SHT31;54562;47.620;18.786;2023-03-03T11:48:47;12.37;61.42
67759;SHT31;54562;47.620;18.786;2023-03-03T11:52:09;12.72;61.17
67759;SHT31;54562;47.620;18.786;2023-03-03T11:55:36;13.03;59.96
67759;SHT31;54562;47.620;18.786;2023-03-03T11:58:49;13.32;60.01
67759;SHT31;54562;47.620;18.786;2023-03-03T12:02:22;13.70;59.15
67759;SHT31;54562;47.620;18.786;2023-03-03T12:06:03;14.14;58.55
67759;SHT31;54562;47.620;18.786;2023-03-03T12:09:28;14.39;57.31
67759;SHT31;54562;47.620;18.786;2023-03-03T12:12:49;14.59;56.39
67759;SHT31;54562;47.620;18.786;2023-03-03T12:16:08;14.69;54.78
67759;SHT31;54562;47.620;18.786;2023-03-03T12:19:28;14.56;54.94
67759;SHT31;54562;47.620;18.786;2023-03-03T12:22:47;14.61;54.40
67759;SHT31;54562;47.620;18.786;2023-03-03T12:26:15;14.67;53.67
67759;SHT31;54562;47.620;18.786;2023-03-03T12:29:34;14.77;53.89
67759;SHT31;54562;47.620;18.786;2023-03-03T12:33:09;14.83;53.41
67759;SHT31;54562;47.620;18.786;2023-03-03T12:36:42;14.81;53.33
67759;SHT31;54562;47.620;18.786;2023-03-03T12:40:08;14.72;53.84
67759;SHT31;54562;47.620;18.786;2023-03-03T12:43:25;14.80;52.77
67759;SHT31;54562;47.620;18.786;2023-03-03T12:46:54;14.91;52.79
67759;SHT31;54562;47.620;18.786;2023-03-03T12:50:21;15.10;52.41
67759;SHT31;54562;47.620;18.786;2023-03-03T12:53:46;15.32;52.11
67759;SHT31;54562;47.620;18.786;2023-03-03T12:57:20;15.41;51.41
67759;SHT31;54562;47.620;18.786;2023-03-03T13:00:45;15.46;50.88
67759;SHT31;54562;47.620;18.786;2023-03-03T13:04:04;15.40;50.97
67759;SHT31;54562;47.620;18.786;2023-03-03T13:07:24;15.29;50.75
67759;SHT31;54562;47.620;18.786;2023-03-03T13:10:42;15.10;50.94
67759;SHT31;54562;47.620;18.786;2023-03-03T13:14:01;15.00;50.92
67759;SHT31;54562;47.620;18.786;2023-03-03T13:17:22;14.89;51.09
67759;SHT31;54562;47.620;18.786;2023-03-03T13:20:39;14.75;50.88
67759;SHT31;54562;47.620;18.786;2023-03-03T13:24:00;14.60;50.98
67759;SHT31;54562;47.620;18.786;2023-03-03T13:27:11;14.46;50.74
67759;SHT31;54562;47.620;18.786;2023-03-03T13:30:24;14.31;50.88
67759;SHT31;54562;47.620;18.786;2023-03-03T13:33:37;14.17;50.69
67759;SHT31;54562;47.620;18.786;2023-03-03T13:36:54;13.97;51.14
67759;SHT31;54562;47.620;18.786;2023-03-03T13:40:14;13.80;50.62
67759;SHT31;54562;47.620;18.786;2023-03-03T13:43:29;13.65;51.25
67759;SHT31;54562;47.620;18.786;2023-03-03T13:46:49;13.59;51.65
67759;SHT31;54562;47.620;18.786;2023-03-03T13:50:14;13.61;51.42
67759;SHT31;54562;47.620;18.786;2023-03-03T13:53:33;13.64;51.71
67759;SHT31;54562;47.620;18.786;2023-03-03T13:57:04;13.63;51.21
67759;SHT31;54562;47.620;18.786;2023-03-03T14:00:33;13.59;51.71
67759;SHT31;54562;47.620;18.786;2023-03-03T14:04:06;13.66;51.19
67759;SHT31;54562;47.620;18.786;2023-03-03T14:07:25;13.68;50.82
67759;SHT31;54562;47.620;18.786;2023-03-03T14:10:39;13.59;50.55
67759;SHT31;54562;47.620;18.786;2023-03-03T14:14:00;13.45;50.72
67759;SHT31;54562;47.620;18.786;2023-03-03T14:17:27;13.24;51.27
67759;SHT31;54562;47.620;18.786;2023-03-03T14:20:42;13.03;51.28
67759;SHT31;54562;47.620;18.786;2023-03-03T14:23:56;13.10;51.53
67759;SHT31;54562;47.620;18.786;2023-03-03T14:27:20;13.29;51.08
67759;SHT31;54562;47.620;18.786;2023-03-03T14:30:38;13.45;50.80
67759;SHT31;54562;47.620;18.786;2023-03-03T14:33:57;13.53;50.41
67759;SHT31;54562;47.620;18.786;2023-03-03T14:37:20;13.63;50.58
67759;SHT31;54562;47.620;18.786;2023-03-03T14:40:32;13.70;50.42
67759;SHT31;54562;47.620;18.786;2023-03-03T14:43:45;13.65;50.30
67759;SHT31;54562;47.620;18.786;2023-03-03T14:50:32;13.44;49.92
67759;SHT31;54562;47.620;18.786;2023-03-03T14:53:44;13.24;50.37
67759;SHT31;54562;47.620;18.786;2023-03-03T14:56:56;13.02;50.72
67759;SHT31;54562;47.620;18.786;2023-03-03T15:00:25;12.90;50.59
67759;SHT31;54562;47.620;18.786;2023-03-03T15:03:42;12.79;50.80
67759;SHT31;54562;47.620;18.786;2023-03-03T15:06:54;12.74;50.72
67759;SHT31;54562;47.620;18.786;2023-03-03T15:10:27;12.64;50.58
67759;SHT31;54562;47.620;18.786;2023-03-03T15:13:38;12.57;50.92
67759;SHT31;54562;47.620;18.786;2023-03-03T15:16:46;12.60;50.93
67759;SHT31;54562;47.620;18.786;2023-03-03T15:20:00;12.64;50.83
67759;SHT31;54562;47.620;18.786;2023-03-03T15:23:34;12.60;50.48
67759;SHT31;54562;47.620;18.786;2023-03-03T15:26:58;12.45;50.50
67759;SHT31;54562;47.620;18.786;2023-03-03T15:30:18;12.30;50.87
67759;SHT31;54562;47.620;18.786;2023-03-03T15:33:39;12.17;50.67
67759;SHT31;54562;47.620;18.786;2023-03-03T15:37:04;12.00;50.80
67759;SHT31;54562;47.620;18.786;2023-03-03T15:40:31;11.79;50.79
67759;SHT31;54562;47.620;18.786;2023-03-03T15:43:51;11.60;50.88
67759;SHT31;54562;47.620;18.786;2023-03-03T15:47:16;11.45;50.98
67759;SHT31;54562;47.620;18.786;2023-03-03T15:50:48;11.26;51.39
67759;SHT31;54562;47.620;18.786;2023-03-03T15:54:12;11.10;51.60
67759;SHT31;54562;47.620;18.786;2023-03-03T15:57:35;10.93;51.58
67759;SHT31;54562;47.620;18.786;2023-03-03T16:00:59;10.72;51.67
67759;SHT31;54562;47.620;18.786;2023-03-03T16:04:19;10.51;52.09
67759;SHT31;54562;47.620;18.786;2023-03-03T16:07:37;10.33;52.13
67759;SHT31;54562;47.620;18.786;2023-03-03T16:10:57;10.18;52.57
67759;SHT31;54562;47.620;18.786;2023-03-03T16:14:21;10.01;52.86
67759;SHT31;54562;47.620;18.786;2023-03-03T16:17:53;9.82;53.03
67759;SHT31;54562;47.620;18.786;2023-03-03T16:21:16;9.67;53.32
67759;SHT31;54562;47.620;18.786;2023-03-03T16:24:41;9.53;53.61
67759;SHT31;54562;47.620;18.786;2023-03-03T16:28:02;9.40;53.80
67759;SHT31;54562;47.620;18.786;2023-03-03T16:31:20;9.28;54.18
67759;SHT31;54562;47.620;18.786;2023-03-03T16:34:38;9.16;54.41
67759;SHT31;54562;47.620;18.786;2023-03-03T16:37:59;9.04;55.17
67759;SHT31;54562;47.620;18.786;2023-03-03T16:41:14;8.93;55.61
67759;SHT31;54562;47.620;18.786;2023-03-03T16:44:38;8.81;55.92
67759;SHT31;54562;47.620;18.786;2023-03-03T16:48:01;8.67;55.72
67759;SHT31;54562;47.620;18.786;2023-03-03T16:51:25;8.55;56.44
67759;SHT31;54562;47.620;18.786;2023-03-03T16:54:50;8.45;56.78
67759;SHT31;54562;47.620;18.786;2023-03-03T16:58:11;8.33;57.39
67759;SHT31;54562;47.620;18.786;2023-03-03T17:01:37;8.18;57.55
67759;SHT31;54562;47.620;18.786;2023-03-03T17:04:55;8.05;57.58
67759;SHT31;54562;47.620;18.786;2023-03-03T17:12:37;7.81;57.38
67759;SHT31;54562;47.620;18.786;2023-03-03T17:16:03;7.70;57.95
67759;SHT31;54562;47.620;18.786;2023-03-03T17:19:26;7.58;57.96
67759;SHT31;54562;47.620;18.786;2023-03-03T17:23:06;7.47;58.60
67759;SHT31;54562;47.620;18.786;2023-03-03T17:26:35;7.36;58.54
67759;SHT31;54562;47.620;18.786;2023-03-03T17:30:05;7.28;58.66
67759;SHT31;54562;47.620;18.786;2023-03-03T17:33:33;7.21;58.96
67759;SHT31;54562;47.620;18.786;2023-03-03T17:37:01;7.15;58.83
67759;SHT31;54562;47.620;18.786;2023-03-03T17:40:31;7.07;58.99
67759;SHT31;54562;47.620;18.786;2023-03-03T17:43:57;7.00;59.01
67759;SHT31;54562;47.620;18.786;2023-03-03T17:47:17;6.93;59.28
67759;SHT31;54562;47.620;18.786;2023-03-03T17:50:55;6.86;59.16
67759;SHT31;54562;47.620;18.786;2023-03-03T17:54:42;6.77;59.17
67759;SHT31;54562;47.620;18.786;2023-03-03T17:58:21;6.69;59.10
67759;SHT31;54562;47.620;18.786;2023-03-03T18:02:01;6.61;59.32
67759;SHT31;54562;47.620;18.786;2023-03-03T18:05:53;6.55;59.92
67759;SHT31;54562;47.620;18.786;2023-03-03T18:13:08;6.37;60.63
67759;SHT31;54562;47.620;18.786;2023-03-03T18:16:57;6.24;61.34
67759;SHT31;54562;47.620;18.786;2023-03-03T18:20:54;6.14;61.44
67759;SHT31;54562;47.620;18.786;2023-03-03T18:24:24;6.05;61.29
67759;SHT31;54562;47.620;18.786;2023-03-03T18:27:38;5.99;61.77
67759;SHT31;54562;47.620;18.786;2023-03-03T18:30:52;5.94;61.67
67759;SHT31;54562;47.620;18.786;2023-03-03T18:34:07;5.88;62.16
67759;SHT31;54562;47.620;18.786;2023-03-03T18:37:40;5.82;62.17
67759;SHT31;54562;47.620;18.786;2023-03-03T18:40:50;5.77;62.08
67759;SHT31;54562;47.620;18.786;2023-03-03T18:44:03;5.72;62.01
67759;SHT31;54562;47.620;18.786;2023-03-03T18:51:11;5.62;62.03
67759;SHT31;54562;47.620;18.786;2023-03-03T18:58:43;5.51;62.45
67759;SHT31;54562;47.620;18.786;2023-03-03T19:01:59;5.45;62.94
67759;SHT31;54562;47.620;18.786;2023-03-03T19:05:32;5.39;63.18
67759;SHT31;54562;47.620;18.786;2023-03-03T19:08:56;5.33;63.53
67759;SHT31;54562;47.620;18.786;2023-03-03T19:12:08;5.28;63.16
67759;SHT31;54562;47.620;18.786;2023-03-03T19:19:11;5.09;62.40
67759;SHT31;54562;47.620;18.786;2023-03-03T19:22:24;4.99;62.42
67759;SHT31;54562;47.620;18.786;2023-03-03T19:25:35;4.89;62.58
67759;SHT31;54562;47.620;18.786;2023-03-03T19:28:46;4.82;62.56
67759;SHT31;54562;47.620;18.786;2023-03-03T19:32:10;4.75;62.55
67759;SHT31;54562;47.620;18.786;2023-03-03T19:35:43;4.68;62.55
67759;SHT31;54562;47.620;18.786;2023-03-03T19:39:15;4.63;62.92
67759;SHT31;54562;47.620;18.786;2023-03-03T19:42:50;4.56;62.76
67759;SHT31;54562;47.620;18.786;2023-03-03T19:46:18;4.51;62.79
67759;SHT31;54562;47.620;18.786;2023-03-03T19:49:50;4.44;62.75
67759;SHT31;54562;47.620;18.786;2023-03-03T19:53:22;4.38;62.73
67759;SHT31;54562;47.620;18.786;2023-03-03T19:56:39;4.28;62.88
67759;SHT31;54562;47.620;18.786;2023-03-03T19:59:54;4.23;62.65
67759;SHT31;54562;47.620;18.786;2023-03-03T20:03:31;4.22;62.51
67759;SHT31;54562;47.620;18.786;2023-03-03T20:07:27;4.20;62.50
67759;SHT31;54562;47.620;18.786;2023-03-03T20:10:45;4.22;62.56
67759;SHT31;54562;47.620;18.786;2023-03-03T20:14:01;4.23;62.43
67759;SHT31;54562;47.620;18.786;2023-03-03T20:21:07;4.19;62.67
67759;SHT31;54562;47.620;18.786;2023-03-03T20:24:31;4.17;62.88
67759;SHT31;54562;47.620;18.786;2023-03-03T20:28:05;4.15;63.63
67759;SHT31;54562;47.620;18.786;2023-03-03T20:31:42;4.13;63.33
67759;SHT31;54562;47.620;18.786;2023-03-03T20:35:00;4.10;63.56
67759;SHT31;54562;47.620;18.786;2023-03-03T20:38:26;4.03;63.69
67759;SHT31;54562;47.620;18.786;2023-03-03T20:41:52;3.95;64.29
67759;SHT31;54562;47.620;18.786;2023-03-03T20:45:21;3.87;64.32
67759;SHT31;54562;47.620;18.786;2023-03-03T20:48:54;3.82;64.14
67759;SHT31;54562;47.620;18.786;2023-03-03T20:52:24;3.76;63.84
67759;SHT31;54562;47.620;18.786;2023-03-03T20:55:47;3.74;63.66
67759;SHT31;54562;47.620;18.786;2023-03-03T20:59:08;3.68;63.81
67759;SHT31;54562;47.620;18.786;2023-03-03T21:02:28;3.52;64.08
67759;SHT31;54562;47.620;18.786;2023-03-03T21:05:55;3.38;64.11
67759;SHT31;54562;47.620;18.786;2023-03-03T21:09:06;3.31;64.07
67759;SHT31;54562;47.620;18.786;2023-03-03T21:12:30;3.24;64.70
67759;SHT31;54562;47.620;18.786;2023-03-03T21:15:38;3.18;65.66
67759;SHT31;54562;47.620;18.786;2023-03-03T21:18:55;3.14;65.80
67759;SHT31;54562;47.620;18.786;2023-03-03T21:22:05;3.12;65.43